createdAt,value
2023-06-28T00:03:14.816Z,11.55
2023-06-28T00:11:38.093Z,11.40
2023-06-28T00:20:07.459Z,11.30
2023-06-28T00:28:30.562Z,11.28
2023-06-28T00:36:56.884Z,11.16
2023-06-28T00:45:20.056Z,10.96
2023-06-28T00:53:45.741Z,10.78
2023-06-28T01:02:12.562Z,10.70
2023-06-28T01:10:39.455Z,10.69
2023-06-28T01:19:06.053Z,10.65
2023-06-28T01:27:30.031Z,10.63
2023-06-28T01:35:53.025Z,10.64
2023-06-28T01:44:16.441Z,10.61
2023-06-28T01:52:39.610Z,10.51
2023-06-28T02:01:02.686Z,10.49
2023-06-28T02:09:25.711Z,10.50
2023-06-28T02:17:51.442Z,10.42
2023-06-28T02:26:15.418Z,10.38
2023-06-28T02:34:39.413Z,10.36
2023-06-28T02:43:03.860Z,10.33
2023-06-28T02:51:27.133Z,10.24
2023-06-28T02:59:50.775Z,10.22
2023-06-28T03:08:14.422Z,10.28
2023-06-28T03:16:38.633Z,10.42
2023-06-28T03:25:01.766Z,10.53
2023-06-28T03:33:25.242Z,10.90
2023-06-28T03:41:48.258Z,11.45
2023-06-28T03:50:11.579Z,11.83
2023-06-28T03:58:34.793Z,11.98
2023-06-28T04:07:02.088Z,12.18
2023-06-28T04:15:25.128Z,12.69
2023-06-28T04:23:48.074Z,13.24
2023-06-28T04:32:26.268Z,13.48
2023-06-28T04:40:49.551Z,13.38
2023-06-28T04:49:12.559Z,13.63
2023-06-28T04:57:35.462Z,14.18
2023-06-28T05:05:58.426Z,14.57
2023-06-28T05:14:21.538Z,14.98
2023-06-28T05:22:51.433Z,15.50
2023-06-28T05:31:14.534Z,15.95
2023-06-28T05:39:37.554Z,16.47
2023-06-28T05:48:01.226Z,16.54
2023-06-28T05:56:25.713Z,16.35
2023-06-28T06:04:48.801Z,16.75
2023-06-28T06:13:11.762Z,17.47
2023-06-28T06:21:34.806Z,18.02
2023-06-28T06:29:57.879Z,18.58
2023-06-28T06:38:22.433Z,19.26
2023-06-28T06:46:46.235Z,19.71
2023-06-28T06:55:11.093Z,20.10
2023-06-28T07:03:34.252Z,20.37
2023-06-28T07:12:00.430Z,20.44
2023-06-28T07:20:23.962Z,20.14
2023-06-28T07:28:47.685Z,20.18
2023-06-28T07:37:11.513Z,20.34
2023-06-28T07:45:35.574Z,20.52
2023-06-28T07:53:58.743Z,20.64
2023-06-28T08:02:21.945Z,20.74
2023-06-28T08:10:47.157Z,20.84
2023-06-28T08:19:12.200Z,20.75
2023-06-28T08:27:37.456Z,20.81
2023-06-28T08:36:02.140Z,20.79
2023-06-28T08:44:33.121Z,20.93
2023-06-28T08:53:06.396Z,20.99
2023-06-28T09:01:32.998Z,20.95
2023-06-28T09:09:57.717Z,20.85
2023-06-28T09:18:21.007Z,20.40
2023-06-28T09:26:47.675Z,19.85
2023-06-28T09:35:14.467Z,20.34
2023-06-28T09:43:38.497Z,20.73
2023-06-28T09:52:04.600Z,21.19
2023-06-28T10:00:30.273Z,21.53
2023-06-28T10:08:55.064Z,21.08
2023-06-28T10:17:18.897Z,20.79
2023-06-28T10:25:43.016Z,20.59
2023-06-28T10:34:08.679Z,20.49
2023-06-28T10:42:40.375Z,20.45
2023-06-28T10:51:07.394Z,20.43
2023-06-28T10:59:30.523Z,20.67
2023-06-28T11:07:53.498Z,20.98
2023-06-28T11:16:23.213Z,20.96
2023-06-28T11:24:47.273Z,20.84
2023-06-28T11:33:12.650Z,20.93
2023-06-28T11:41:36.366Z,21.19
2023-06-28T11:49:59.391Z,21.64
2023-06-28T11:58:40.386Z,21.20
2023-06-28T12:07:07.737Z,20.54
2023-06-28T12:15:30.851Z,20.42
2023-06-28T12:23:54.830Z,21.01
2023-06-28T12:32:21.737Z,20.67
2023-06-28T12:40:46.721Z,20.21
2023-06-28T12:49:09.931Z,20.09
2023-06-28T12:57:32.959Z,20.40
2023-06-28T13:05:56.410Z,20.79
2023-06-28T13:14:21.234Z,21.34
2023-06-28T13:22:44.452Z,21.59
2023-06-28T13:31:07.558Z,21.46
2023-06-28T13:39:31.310Z,21.10
2023-06-28T13:47:54.368Z,20.63
2023-06-28T13:56:17.408Z,20.30
2023-06-28T14:04:40.423Z,20.22
2023-06-28T14:13:03.859Z,20.06
2023-06-28T14:21:26.840Z,19.66
2023-06-28T14:29:49.952Z,19.29
2023-06-28T14:38:13.191Z,19.14
2023-06-28T14:46:36.347Z,19.32
2023-06-28T14:54:59.419Z,19.39
2023-06-28T15:03:25.152Z,19.39
2023-06-28T15:11:48.868Z,19.44
2023-06-28T15:20:16.027Z,19.47
2023-06-28T15:28:45.814Z,20.19
2023-06-28T15:37:09.218Z,20.40
2023-06-28T15:45:34.645Z,19.89
2023-06-28T15:53:58.161Z,19.52
2023-06-28T16:02:21.273Z,19.38
2023-06-28T16:10:44.666Z,18.99
2023-06-28T16:19:07.876Z,18.86
2023-06-28T16:27:30.943Z,18.93
2023-06-28T16:35:53.895Z,18.70
2023-06-28T16:44:17.473Z,18.17
2023-06-28T16:52:40.420Z,17.80
2023-06-28T17:01:03.983Z,17.71
2023-06-28T17:09:27.889Z,17.71
2023-06-28T17:17:50.862Z,17.51
2023-06-28T17:26:13.991Z,17.26
2023-06-28T17:34:37.688Z,17.10
2023-06-28T17:43:00.685Z,16.77
2023-06-28T17:51:24.847Z,16.56
2023-06-28T17:59:47.866Z,16.42
2023-06-28T18:08:10.893Z,16.20
2023-06-28T18:16:34.364Z,15.96
2023-06-28T18:24:57.415Z,15.85
2023-06-28T18:33:23.226Z,15.84
2023-06-28T18:41:47.053Z,15.73
2023-06-28T18:50:12.262Z,15.49
2023-06-28T18:58:37.512Z,15.26
2023-06-28T19:07:02.225Z,15.08
2023-06-28T19:15:25.842Z,14.96
2023-06-28T19:23:48.845Z,14.91
2023-06-28T19:32:11.987Z,14.89
2023-06-28T19:40:36.128Z,14.76
2023-06-28T19:48:59.380Z,14.67
2023-06-28T19:57:22.548Z,14.61
2023-06-28T20:05:45.663Z,14.55
2023-06-28T20:14:10.214Z,14.43
2023-06-28T20:22:36.144Z,14.35
2023-06-28T20:30:59.204Z,14.36
2023-06-28T20:39:22.277Z,14.33
2023-06-28T20:47:46.542Z,14.25
2023-06-28T20:56:13.348Z,14.15
2023-06-28T21:04:37.148Z,14.07
2023-06-28T21:13:00.793Z,14.05
2023-06-28T21:21:23.900Z,14.01
2023-06-28T21:29:46.948Z,13.96
2023-06-28T21:38:10.003Z,13.83
2023-06-28T21:46:33.338Z,13.73
2023-06-28T21:54:56.242Z,13.70
2023-06-28T22:03:19.300Z,13.70
2023-06-28T22:11:43.198Z,13.71
2023-06-28T22:20:10.650Z,13.65
2023-06-28T22:28:34.602Z,13.55
2023-06-28T22:36:57.586Z,13.47
2023-06-28T22:45:20.522Z,13.40
2023-06-28T22:53:48.751Z,13.33
2023-06-28T23:02:12.753Z,13.24
2023-06-28T23:10:35.891Z,13.17
2023-06-28T23:19:03.258Z,13.15
2023-06-28T23:27:28.411Z,13.16
2023-06-28T23:35:51.420Z,13.19
2023-06-28T23:44:15.477Z,13.24
2023-06-28T23:52:39.629Z,13.24
